createdAt,value
2019-05-26T00:11:09.960Z,30.57
2019-05-26T00:13:40.870Z,26.57
2019-05-26T00:16:11.718Z,19.75
2019-05-26T00:18:42.406Z,18.55
2019-05-26T00:21:13.334Z,17.95
2019-05-26T00:23:44.391Z,20.48
2019-05-26T00:26:15.294Z,25.55
2019-05-26T00:28:46.225Z,21.40
2019-05-26T00:31:17.055Z,25.23
2019-05-26T00:33:47.867Z,19.37
2019-05-26T00:36:18.830Z,16.60
2019-05-26T00:38:51.830Z,17.00
2019-05-26T00:41:22.774Z,16.82
2019-05-26T00:43:53.669Z,28.45
2019-05-26T00:46:24.489Z,18.70
2019-05-26T00:48:55.471Z,17.75
2019-05-26T00:51:26.378Z,17.05
2019-05-26T00:53:57.283Z,16.00
2019-05-26T00:56:28.117Z,16.77
2019-05-26T00:58:59.247Z,17.60
2019-05-26T01:01:30.140Z,16.57
2019-05-26T01:04:01.229Z,22.00
2019-05-26T01:06:51.162Z,22.07
2019-05-26T01:09:41.307Z,21.73
2019-05-26T01:12:12.283Z,20.88
2019-05-26T01:14:43.188Z,17.57
2019-05-26T01:17:16.275Z,17.70
2019-05-26T01:19:47.427Z,16.93
2019-05-26T01:22:18.659Z,16.80
2019-05-26T01:24:49.627Z,17.10
2019-05-26T01:27:20.563Z,15.78
2019-05-26T01:29:51.401Z,16.00
2019-05-26T01:32:22.312Z,17.42
2019-05-26T01:34:53.444Z,16.15
2019-05-26T01:37:24.309Z,16.60
2019-05-26T01:39:55.127Z,16.95
2019-05-26T01:42:26.108Z,16.80
2019-05-26T01:44:56.813Z,16.52
2019-05-26T01:47:27.856Z,16.15
2019-05-26T01:49:58.979Z,16.50
2019-05-26T01:52:30.096Z,16.48
2019-05-26T01:55:01.121Z,16.65
2019-05-26T01:57:32.594Z,18.75
2019-05-26T02:00:03.755Z,17.85
2019-05-26T02:02:34.645Z,16.55
2019-05-26T02:05:06.061Z,18.42
2019-05-26T02:07:37.076Z,17.80
2019-05-26T02:10:09.393Z,15.90
2019-05-26T02:12:40.415Z,17.30
2019-05-26T02:15:11.598Z,22.58
2019-05-26T02:17:42.786Z,19.70
2019-05-26T02:20:13.966Z,16.65
2019-05-26T02:22:45.103Z,16.27
2019-05-26T02:25:16.351Z,15.80
2019-05-26T02:28:07.524Z,19.62
2019-05-26T02:30:38.397Z,24.80
2019-05-26T02:33:09.149Z,22.05
2019-05-26T02:35:40.805Z,15.23
2019-05-26T02:38:11.810Z,15.35
2019-05-26T02:40:42.766Z,15.15
2019-05-26T02:43:13.788Z,15.70
2019-05-26T02:45:44.823Z,15.28
2019-05-26T02:48:15.646Z,15.48
2019-05-26T02:50:46.998Z,15.32
2019-05-26T02:53:17.993Z,20.62
2019-05-26T02:55:49.001Z,16.55
2019-05-26T02:58:19.864Z,19.23
2019-05-26T03:00:51.075Z,18.12
2019-05-26T03:03:22.027Z,15.63
2019-05-26T03:05:54.079Z,14.78
2019-05-26T03:08:27.000Z,14.23
2019-05-26T03:11:00.085Z,14.78
2019-05-26T03:13:32.721Z,14.90
2019-05-26T03:16:06.089Z,15.53
2019-05-26T03:18:38.221Z,14.83
2019-05-26T03:21:09.219Z,15.18
2019-05-26T03:23:42.535Z,15.38
2019-05-26T03:26:14.892Z,15.23
2019-05-26T03:28:45.655Z,15.70
2019-05-26T03:31:16.656Z,14.53
2019-05-26T03:33:47.806Z,15.98
2019-05-26T03:36:18.618Z,15.28
2019-05-26T03:38:49.518Z,15.23
2019-05-26T03:41:20.416Z,14.20
2019-05-26T03:43:51.353Z,14.93
2019-05-26T03:46:22.510Z,14.70
2019-05-26T03:48:53.332Z,15.25
2019-05-26T03:51:25.050Z,15.90
2019-05-26T03:53:56.171Z,15.10
2019-05-26T03:56:27.173Z,14.95
2019-05-26T03:58:58.470Z,16.25
2019-05-26T04:01:30.671Z,14.47
2019-05-26T04:04:01.558Z,14.60
2019-05-26T04:06:32.575Z,14.63
2019-05-26T04:09:03.661Z,14.33
2019-05-26T04:11:34.551Z,14.87
2019-05-26T04:14:05.532Z,14.85
2019-05-26T04:16:36.479Z,14.58
2019-05-26T04:19:07.450Z,15.68
2019-05-26T04:21:38.362Z,14.05
2019-05-26T04:24:09.339Z,14.85
2019-05-26T04:26:40.201Z,14.83
2019-05-26T04:29:11.113Z,14.40
2019-05-26T04:31:41.949Z,15.10
2019-05-26T04:34:12.940Z,15.05
2019-05-26T04:36:43.848Z,14.63
2019-05-26T04:39:14.860Z,14.58
2019-05-26T04:41:45.612Z,15.03
2019-05-26T04:44:16.397Z,14.53
2019-05-26T04:46:47.324Z,15.75
2019-05-26T04:49:18.405Z,14.53
2019-05-26T04:51:49.450Z,14.18
2019-05-26T04:54:20.171Z,14.75
2019-05-26T04:56:51.426Z,13.95
2019-05-26T04:59:22.120Z,14.05
2019-05-26T05:01:53.100Z,13.75
2019-05-26T05:04:24.153Z,13.98
2019-05-26T05:06:54.986Z,14.30
2019-05-26T05:09:25.947Z,14.13
2019-05-26T05:11:56.962Z,13.68
2019-05-26T05:14:28.008Z,14.28
2019-05-26T05:16:59.433Z,15.30
2019-05-26T05:19:30.339Z,13.75
2019-05-26T05:22:01.279Z,14.10
2019-05-26T05:24:32.079Z,13.98
2019-05-26T05:27:03.030Z,13.55
2019-05-26T05:29:33.990Z,14.05
2019-05-26T05:32:04.878Z,14.63
2019-05-26T05:34:35.732Z,14.13
2019-05-26T05:37:06.693Z,14.03
2019-05-26T05:39:37.303Z,14.03
2019-05-26T05:42:08.164Z,14.58
2019-05-26T05:44:39.090Z,12.88
2019-05-26T05:47:10.191Z,14.13
2019-05-26T05:49:41.038Z,13.72
2019-05-26T05:52:12.019Z,13.35
2019-05-26T05:54:43.010Z,13.58
2019-05-26T05:57:13.997Z,14.35
2019-05-26T05:59:44.883Z,13.80
2019-05-26T06:02:15.770Z,13.83
2019-05-26T06:04:46.551Z,15.40
2019-05-26T06:07:17.539Z,14.40
2019-05-26T06:09:48.429Z,13.65
2019-05-26T06:12:19.263Z,14.03
2019-05-26T06:14:50.041Z,13.25
2019-05-26T06:17:20.933Z,13.65
2019-05-26T06:19:51.779Z,13.10
2019-05-26T06:22:22.816Z,12.47
2019-05-26T06:24:53.537Z,13.00
2019-05-26T06:27:24.516Z,13.03
2019-05-26T06:29:58.997Z,12.82
2019-05-26T06:32:27.531Z,11.70
2019-05-26T06:34:58.637Z,12.47
2019-05-26T06:37:29.576Z,13.03
2019-05-26T06:40:00.346Z,13.30
2019-05-26T06:42:31.346Z,13.03
2019-05-26T06:45:02.222Z,11.85
2019-05-26T06:47:33.178Z,12.23
2019-05-26T06:50:04.592Z,12.28
2019-05-26T06:52:35.503Z,12.88
2019-05-26T06:55:07.536Z,13.60
2019-05-26T06:57:38.630Z,13.72
2019-05-26T07:00:11.139Z,14.33
2019-05-26T07:02:42.170Z,12.68
2019-05-26T07:05:13.172Z,13.32
2019-05-26T07:07:43.906Z,13.58
2019-05-26T07:10:15.273Z,13.62
2019-05-26T07:12:45.988Z,13.03
2019-05-26T07:15:17.253Z,13.35
2019-05-26T07:17:50.837Z,13.83
2019-05-26T07:20:22.036Z,12.60
2019-05-26T07:22:52.934Z,12.82
2019-05-26T07:25:23.908Z,12.90
2019-05-26T07:27:54.743Z,11.85
2019-05-26T07:30:25.718Z,12.75
2019-05-26T07:32:56.597Z,13.28
2019-05-26T07:35:27.442Z,14.07
2019-05-26T07:37:58.445Z,13.40
2019-05-26T07:40:29.543Z,13.30
2019-05-26T07:43:00.524Z,12.88
2019-05-26T07:45:31.315Z,13.15
2019-05-26T07:48:02.210Z,13.25
2019-05-26T07:50:33.121Z,12.40
2019-05-26T07:53:03.962Z,13.25
2019-05-26T07:55:34.911Z,13.30
2019-05-26T07:58:06.014Z,13.60
2019-05-26T08:00:36.803Z,13.78
2019-05-26T08:03:07.652Z,13.05
2019-05-26T08:05:38.545Z,13.38
2019-05-26T08:08:13.059Z,13.43
2019-05-26T08:10:41.656Z,13.28
2019-05-26T08:13:12.749Z,14.00
2019-05-26T08:15:43.850Z,14.03
2019-05-26T08:18:14.725Z,14.58
2019-05-26T08:20:45.685Z,13.72
2019-05-26T08:23:16.581Z,13.18
2019-05-26T08:25:49.300Z,14.58
2019-05-26T08:28:21.665Z,13.08
2019-05-26T08:30:52.711Z,14.28
2019-05-26T08:33:24.251Z,13.88
2019-05-26T08:35:55.193Z,13.62
2019-05-26T08:38:26.239Z,13.93
2019-05-26T08:40:57.330Z,14.05
2019-05-26T08:43:28.918Z,13.45
2019-05-26T08:45:59.852Z,14.33
2019-05-26T08:48:30.695Z,13.95
2019-05-26T08:51:01.594Z,14.78
2019-05-26T08:53:32.493Z,13.72
2019-05-26T08:56:03.201Z,14.35
2019-05-26T08:58:34.162Z,14.28
2019-05-26T09:01:05.046Z,14.75
2019-05-26T09:03:55.372Z,15.05
2019-05-26T09:06:26.197Z,14.28
2019-05-26T09:08:56.991Z,14.35
2019-05-26T09:11:27.847Z,14.98
2019-05-26T09:13:58.777Z,15.55
2019-05-26T09:16:29.775Z,15.20
2019-05-26T09:19:00.762Z,15.30
2019-05-26T09:21:31.469Z,16.12
2019-05-26T09:24:02.255Z,16.95
2019-05-26T09:26:33.112Z,15.95
2019-05-26T09:29:04.111Z,16.10
2019-05-26T09:31:35.130Z,16.32
2019-05-26T09:34:06.289Z,15.80
2019-05-26T09:36:37.285Z,16.45
2019-05-26T09:39:09.536Z,15.35
2019-05-26T09:41:40.496Z,15.68
2019-05-26T09:44:11.186Z,16.17
2019-05-26T09:46:42.035Z,15.50
2019-05-26T09:49:12.921Z,15.85
2019-05-26T09:51:43.794Z,15.80
2019-05-26T09:54:14.709Z,14.70
2019-05-26T09:56:45.537Z,15.93
2019-05-26T09:59:16.546Z,15.13
2019-05-26T10:01:47.395Z,15.80
2019-05-26T10:04:18.318Z,15.65
2019-05-26T10:06:49.178Z,15.05
2019-05-26T10:09:19.967Z,15.70
2019-05-26T10:11:50.754Z,16.10
2019-05-26T10:14:21.806Z,16.75
2019-05-26T10:16:52.873Z,17.40
2019-05-26T10:19:23.763Z,16.77
2019-05-26T10:21:54.665Z,17.50
2019-05-26T10:24:25.515Z,16.82
2019-05-26T10:26:56.328Z,16.00
2019-05-26T10:29:27.125Z,16.87
2019-05-26T10:31:58.067Z,16.87
2019-05-26T10:34:28.898Z,15.63
2019-05-26T10:36:59.880Z,17.25
2019-05-26T10:39:30.834Z,17.25
2019-05-26T10:42:01.650Z,17.05
2019-05-26T10:44:32.441Z,16.77
2019-05-26T10:47:03.218Z,16.37
2019-05-26T10:49:33.916Z,16.40
2019-05-26T10:52:04.781Z,16.37
2019-05-26T10:54:35.623Z,15.80
2019-05-26T10:57:06.385Z,16.30
2019-05-26T10:59:37.254Z,16.97
2019-05-26T11:02:08.500Z,16.40
2019-05-26T11:04:39.294Z,16.55
2019-05-26T11:07:10.097Z,16.23
2019-05-26T11:09:40.850Z,17.02
2019-05-26T11:12:11.659Z,17.10
2019-05-26T11:14:42.941Z,16.25
2019-05-26T11:17:13.604Z,16.85
2019-05-26T11:19:44.368Z,16.40
2019-05-26T11:22:15.181Z,18.45
2019-05-26T11:24:46.109Z,17.55
2019-05-26T11:27:17.160Z,17.35
2019-05-26T11:29:48.083Z,18.17
2019-05-26T11:32:19.079Z,17.42
2019-05-26T11:35:01.172Z,17.25
2019-05-26T11:37:21.981Z,17.55
2019-05-26T11:39:52.868Z,17.48
2019-05-26T11:42:23.750Z,18.00
2019-05-26T11:44:54.671Z,18.42
2019-05-26T11:47:25.528Z,17.80
2019-05-26T11:49:56.338Z,17.50
2019-05-26T11:52:27.028Z,16.42
2019-05-26T11:54:57.660Z,17.52
2019-05-26T11:57:28.641Z,16.73
2019-05-26T11:59:59.521Z,16.67
2019-05-26T12:02:30.258Z,16.10
2019-05-26T12:05:01.247Z,16.93
2019-05-26T12:07:31.988Z,16.57
2019-05-26T12:10:02.750Z,16.57
2019-05-26T12:12:33.618Z,17.52
2019-05-26T12:15:04.531Z,15.45
2019-05-26T12:17:35.515Z,16.67
2019-05-26T12:20:07.770Z,16.23
2019-05-26T12:22:38.564Z,15.90
2019-05-26T12:25:10.128Z,16.60
2019-05-26T12:27:41.116Z,16.07
2019-05-26T12:30:13.149Z,20.02
2019-05-26T12:32:44.281Z,17.17
2019-05-26T12:35:15.453Z,16.75
2019-05-26T12:37:48.319Z,16.65
2019-05-26T12:40:18.998Z,16.85
2019-05-26T12:42:49.587Z,15.93
2019-05-26T12:45:20.924Z,17.45
2019-05-26T12:47:51.763Z,16.07
2019-05-26T12:50:22.599Z,17.92
2019-05-26T12:52:53.573Z,16.70
2019-05-26T12:55:24.333Z,16.93
2019-05-26T12:57:55.266Z,16.73
2019-05-26T13:00:26.350Z,15.95
2019-05-26T13:02:57.159Z,17.17
2019-05-26T13:05:28.066Z,17.02
2019-05-26T13:07:58.767Z,17.27
2019-05-26T13:10:29.593Z,16.85
2019-05-26T13:13:00.484Z,17.15
2019-05-26T13:15:31.352Z,16.77
2019-05-26T13:18:02.331Z,16.00
2019-05-26T13:20:33.045Z,16.77
2019-05-26T13:23:04.090Z,18.23
2019-05-26T13:25:35.474Z,16.73
2019-05-26T13:28:06.606Z,18.23
2019-05-26T13:30:38.887Z,16.57
2019-05-26T13:33:09.828Z,16.52
2019-05-26T13:35:40.669Z,18.05
2019-05-26T13:38:11.562Z,18.05
2019-05-26T13:40:42.465Z,17.62
2019-05-26T13:43:13.288Z,17.70
2019-05-26T13:45:44.211Z,17.20
2019-05-26T13:48:14.992Z,17.70
2019-05-26T13:50:45.890Z,18.57
2019-05-26T13:53:16.704Z,17.55
2019-05-26T13:55:47.654Z,17.85
2019-05-26T13:58:18.516Z,18.62
2019-05-26T14:00:49.692Z,18.07
2019-05-26T14:03:23.986Z,18.75
2019-05-26T14:05:52.955Z,18.17
2019-05-26T14:08:23.981Z,18.15
2019-05-26T14:10:55.106Z,17.92
2019-05-26T14:13:26.048Z,19.02
2019-05-26T14:15:58.351Z,18.52
2019-05-26T14:18:30.772Z,19.37
2019-05-26T14:21:01.649Z,18.85
2019-05-26T14:23:32.717Z,19.02
2019-05-26T14:26:03.641Z,19.98
2019-05-26T14:28:34.544Z,19.55
2019-05-26T14:31:05.509Z,19.60
2019-05-26T14:33:36.453Z,18.95
2019-05-26T14:36:07.474Z,19.85
2019-05-26T14:38:43.085Z,20.10
2019-05-26T14:41:10.416Z,20.40
2019-05-26T14:43:41.374Z,20.20
2019-05-26T14:46:12.283Z,19.55
2019-05-26T14:48:43.463Z,20.40
2019-05-26T14:51:14.199Z,20.85
2019-05-26T14:53:45.004Z,21.15
2019-05-26T14:56:15.835Z,21.45
2019-05-26T14:58:46.678Z,19.73
2019-05-26T15:01:17.608Z,19.62
2019-05-26T15:03:48.649Z,20.72
2019-05-26T15:06:19.603Z,19.00
2019-05-26T15:08:50.561Z,20.23
2019-05-26T15:11:21.438Z,20.92
2019-05-26T15:13:52.385Z,20.77
2019-05-26T15:16:23.128Z,20.55
2019-05-26T15:18:53.879Z,19.42
2019-05-26T15:21:24.786Z,20.75
2019-05-26T15:23:55.714Z,20.65
2019-05-26T15:26:26.556Z,20.92
2019-05-26T15:28:57.456Z,20.95
2019-05-26T15:31:28.317Z,20.23
2019-05-26T15:33:59.295Z,19.77
2019-05-26T15:36:30.088Z,19.65
2019-05-26T15:39:01.165Z,19.98
2019-05-26T15:41:32.112Z,20.70
2019-05-26T15:44:03.030Z,18.85
2019-05-26T15:46:33.853Z,19.82
2019-05-26T15:49:04.724Z,19.92
2019-05-26T15:51:35.441Z,19.98
2019-05-26T15:54:06.269Z,20.23
2019-05-26T15:56:37.095Z,20.20
2019-05-26T15:59:07.927Z,20.20
2019-05-26T16:01:38.742Z,20.77
2019-05-26T16:04:09.719Z,21.00
2019-05-26T16:06:40.587Z,20.37
2019-05-26T16:09:11.530Z,18.85
2019-05-26T16:11:43.690Z,20.72
2019-05-26T16:14:14.636Z,20.40
2019-05-26T16:16:45.564Z,19.90
2019-05-26T16:19:16.224Z,21.02
2019-05-26T16:21:46.926Z,21.45
2019-05-26T16:24:18.024Z,20.40
2019-05-26T16:26:48.961Z,20.57
2019-05-26T16:29:19.806Z,21.62
2019-05-26T16:31:50.692Z,20.35
2019-05-26T16:34:21.653Z,20.72
2019-05-26T16:36:52.247Z,21.97
2019-05-26T16:39:36.131Z,20.97
2019-05-26T16:41:55.155Z,21.55
2019-05-26T16:44:26.031Z,20.43
2019-05-26T16:46:57.171Z,20.15
2019-05-26T16:49:28.138Z,20.48
2019-05-26T16:51:58.914Z,21.00
2019-05-26T16:54:29.963Z,20.08
2019-05-26T16:57:00.909Z,20.72
2019-05-26T16:59:32.006Z,21.70
2019-05-26T17:02:02.830Z,20.27
2019-05-26T17:04:33.954Z,20.27
2019-05-26T17:07:04.813Z,20.95
2019-05-26T17:09:35.630Z,20.80
2019-05-26T17:12:06.976Z,19.02
2019-05-26T17:14:37.628Z,20.55
2019-05-26T17:17:14.698Z,21.12
2019-05-26T17:19:40.800Z,19.37
2019-05-26T17:22:11.600Z,19.92
2019-05-26T17:24:42.393Z,19.62
2019-05-26T17:27:13.202Z,20.37
2019-05-26T17:29:44.036Z,19.62
2019-05-26T17:32:14.914Z,20.27
2019-05-26T17:34:45.852Z,19.70
2019-05-26T17:37:16.638Z,18.82
2019-05-26T17:39:47.550Z,18.92
2019-05-26T17:42:18.334Z,20.10
2019-05-26T17:44:49.101Z,18.42
2019-05-26T17:47:29.803Z,19.40
2019-05-26T17:49:52.069Z,17.92
2019-05-26T17:52:23.129Z,18.35
2019-05-26T17:54:53.934Z,18.12
2019-05-26T17:57:25.060Z,18.62
2019-05-26T17:59:55.819Z,18.15
2019-05-26T18:02:26.756Z,17.25
2019-05-26T18:04:57.698Z,17.60
2019-05-26T18:07:28.385Z,18.40
2019-05-26T18:09:59.205Z,16.42
2019-05-26T18:12:30.101Z,16.32
2019-05-26T18:15:00.825Z,16.70
2019-05-26T18:17:45.905Z,17.27
2019-05-26T18:20:04.062Z,16.82
2019-05-26T18:22:34.863Z,16.97
2019-05-26T18:25:06.738Z,15.93
2019-05-26T18:27:37.695Z,16.67
2019-05-26T18:30:09.726Z,15.65
2019-05-26T18:32:40.518Z,16.65
2019-05-26T18:35:12.049Z,16.48
2019-05-26T18:37:42.878Z,16.93
2019-05-26T18:40:14.296Z,16.20
2019-05-26T18:42:45.145Z,16.07
2019-05-26T18:45:16.440Z,17.48
2019-05-26T18:48:01.971Z,16.52
2019-05-26T18:50:19.542Z,15.95
2019-05-26T18:52:50.395Z,16.20
2019-05-26T18:55:21.084Z,16.60
2019-05-26T18:57:52.070Z,16.50
2019-05-26T19:00:23.088Z,17.35
2019-05-26T19:02:53.958Z,16.32
2019-05-26T19:05:34.519Z,15.60
2019-05-26T19:07:57.385Z,16.40
2019-05-26T19:10:28.583Z,17.27
2019-05-26T19:12:59.499Z,16.62
2019-05-26T19:15:30.366Z,17.87
2019-05-26T19:18:01.344Z,16.05
2019-05-26T19:20:32.183Z,16.77
2019-05-26T19:23:03.139Z,17.17
2019-05-26T19:25:33.913Z,18.00
2019-05-26T19:28:04.832Z,17.50
2019-05-26T19:30:35.626Z,17.50
2019-05-26T19:33:06.655Z,17.48
2019-05-26T19:35:37.196Z,17.95
2019-05-26T19:38:08.185Z,17.90
2019-05-26T19:40:39.053Z,17.87
2019-05-26T19:43:09.986Z,18.67
2019-05-26T19:45:40.836Z,17.80
2019-05-26T19:48:11.643Z,18.20
2019-05-26T19:50:42.335Z,17.07
2019-05-26T19:53:13.040Z,17.87
2019-05-26T19:55:43.803Z,18.10
2019-05-26T19:58:14.657Z,17.52
2019-05-26T20:00:45.633Z,17.52
2019-05-26T20:03:16.459Z,17.50
2019-05-26T20:05:47.451Z,16.70
2019-05-26T20:08:18.230Z,17.32
2019-05-26T20:10:48.989Z,17.37
2019-05-26T20:13:19.674Z,17.10
2019-05-26T20:15:50.670Z,17.73
2019-05-26T20:18:21.566Z,18.25
2019-05-26T20:20:52.526Z,16.85
2019-05-26T20:23:23.489Z,17.12
2019-05-26T20:25:54.429Z,16.97
2019-05-26T20:28:25.617Z,17.82
2019-05-26T20:30:56.469Z,18.98
2019-05-26T20:33:27.576Z,17.85
2019-05-26T20:35:58.373Z,18.15
2019-05-26T20:38:29.060Z,18.10
2019-05-26T20:41:00.017Z,17.95
2019-05-26T20:43:30.734Z,17.45
2019-05-26T20:46:01.650Z,16.90
2019-05-26T20:48:32.423Z,17.67
2019-05-26T20:51:03.288Z,17.45
2019-05-26T20:53:34.235Z,18.00
2019-05-26T20:56:05.188Z,17.60
2019-05-26T20:58:35.994Z,17.75
2019-05-26T21:01:07.044Z,17.82
2019-05-26T21:03:37.796Z,16.87
2019-05-26T21:06:08.708Z,17.48
2019-05-26T21:08:39.681Z,18.15
2019-05-26T21:11:10.627Z,16.55
2019-05-26T21:13:41.511Z,17.98
2019-05-26T21:16:12.315Z,17.85
2019-05-26T21:18:43.053Z,17.05
2019-05-26T21:21:13.959Z,17.40
2019-05-26T21:23:44.891Z,17.42
2019-05-26T21:26:15.822Z,16.65
2019-05-26T21:28:46.838Z,16.85
2019-05-26T21:31:17.692Z,16.90
2019-05-26T21:33:48.888Z,16.57
2019-05-26T21:36:19.678Z,17.42
2019-05-26T21:38:50.529Z,17.30
2019-05-26T21:41:21.219Z,16.52
2019-05-26T21:43:52.106Z,16.45
2019-05-26T21:46:22.974Z,16.62
2019-05-26T21:48:53.746Z,17.37
2019-05-26T21:51:24.545Z,16.87
2019-05-26T21:53:55.543Z,15.85
2019-05-26T21:56:26.383Z,17.05
2019-05-26T21:58:57.092Z,17.25
2019-05-26T22:01:28.086Z,16.52
2019-05-26T22:03:59.130Z,17.10
2019-05-26T22:06:29.886Z,17.02
2019-05-26T22:09:00.730Z,17.30
2019-05-26T22:11:31.741Z,17.50
2019-05-26T22:14:02.649Z,17.02
2019-05-26T22:16:33.434Z,17.12
2019-05-26T22:19:04.337Z,17.60
2019-05-26T22:21:35.183Z,17.77
2019-05-26T22:24:06.291Z,17.67
2019-05-26T22:26:37.210Z,18.07
2019-05-26T22:29:08.151Z,17.32
2019-05-26T22:31:38.922Z,18.45
2019-05-26T22:34:09.710Z,17.48
2019-05-26T22:36:40.453Z,18.23
